Time;durP1;ratioP1;P1;durP2;ratioP2;P2;SDS_P1;SDS_P2;PMS_P1;PMS_P2;Temp;Humidity;BMP_temperature;BMP_pressure;BME280_temperature;BME280_humidity;BME280_pressure;Samples;Min_cycle;Max_cycle;Signal;HPM_P1;HPM_P2
2023/09/18 00:02:12;;;;;;;0.00;0.00;;;18.50;99.90;;;;;;4949473;29;20035;-86
2023/09/18 00:04:37;;;;;;;2.13;1.93;;;18.70;99.90;;;;;;4946726;29;20860;-86
2023/09/18 00:07:03;;;;;;;0.10;0.10;;;18.60;99.90;;;;;;4946648;29;20035;-85
2023/09/18 00:09:29;;;;;;;0.00;0.00;;;18.60;99.90;;;;;;4946626;29;20051;-85
2023/09/18 00:11:54;;;;;;;0.00;0.00;;;18.60;99.90;;;;;;4935909;29;20047;-85
2023/09/18 00:14:20;;;;;;;0.00;0.00;;;18.50;99.90;;;;;;4947959;28;20031;-85
2023/09/18 00:16:46;;;;;;;0.10;0.10;;;18.40;99.90;;;;;;4946532;28;20047;-86
2023/09/18 00:19:11;;;;;;;0.00;0.00;;;18.50;99.90;;;;;;4944148;29;20110;-85
2023/09/18 00:21:37;;;;;;;0.13;0.13;;;18.60;99.90;;;;;;4956404;28;20060;-84
2023/09/18 00:24:03;;;;;;;0.00;0.00;;;18.60;99.90;;;;;;4946191;29;20652;-86
2023/09/18 00:26:29;;;;;;;0.00;0.00;;;18.60;99.90;;;;;;4946729;28;20111;-85
2023/09/18 00:28:54;;;;;;;0.00;0.00;;;18.60;99.90;;;;;;4950716;28;20110;-84
2023/09/18 00:31:20;;;;;;;0.00;0.00;;;18.50;99.90;;;;;;4947741;28;20079;-84
2023/09/18 00:33:46;;;;;;;0.00;0.00;;;18.60;99.90;;;;;;4947365;28;20110;-84
2023/09/18 00:36:12;;;;;;;0.00;0.00;;;18.60;99.90;;;;;;4959461;28;20035;-83
2023/09/18 00:38:37;;;;;;;0.00;0.00;;;18.60;99.90;;;;;;4947161;29;20114;-83
2023/09/18 00:41:03;;;;;;;0.00;0.00;;;18.60;99.90;;;;;;4961214;28;20031;-83
2023/09/18 00:43:29;;;;;;;0.00;0.00;;;18.70;99.90;;;;;;4944420;28;20023;-84
2023/09/18 00:45:55;;;;;;;0.00;0.00;;;18.60;99.90;;;;;;4948337;29;20037;-84
2023/09/18 00:48:21;;;;;;;0.00;0.00;;;18.50;99.90;;;;;;4943589;28;20114;-84
2023/09/18 00:50:48;;;;;;;0.00;0.00;;;18.40;99.90;;;;;;4943781;28;20666;-84
2023/09/18 00:53:20;;;;;;;0.00;0.00;;;18.50;99.90;;;;;;4948881;29;20053;-84
2023/09/18 00:55:46;;;;;;;0.00;0.00;;;18.60;99.90;;;;;;4940825;29;20039;-84
2023/09/18 00:58:12;;;;;;;0.10;0.10;;;18.50;99.90;;;;;;4935475;29;20046;-83
2023/09/18 01:00:38;;;;;;;0.00;0.00;;;18.60;99.90;;;;;;4939992;28;20782;-84
2023/09/18 01:03:04;;;;;;;0.00;0.00;;;18.60;99.90;;;;;;4940299;28;20028;-83
2023/09/18 01:05:33;;;;;;;0.00;0.00;;;18.50;99.90;;;;;;4939079;29;20035;-82
2023/09/18 01:07:59;;;;;;;0.00;0.00;;;18.60;99.90;;;;;;4942688;28;20039;-84
2023/09/18 01:10:36;;;;;;;0.00;0.00;;;18.60;99.90;;;;;;4963554;28;20090;-85
2023/09/18 01:13:13;;;;;;;0.00;0.00;;;18.70;99.90;;;;;;4955304;28;20082;-85
2023/09/18 01:15:46;;;;;;;0.00;0.00;;;18.70;99.90;;;;;;4947484;28;20035;-84
2023/09/18 01:18:13;;;;;;;0.00;0.00;;;18.60;99.90;;;;;;4942492;28;20037;-85
2023/09/18 01:20:39;;;;;;;0.00;0.00;;;18.50;99.90;;;;;;4944007;29;20663;-83
2023/09/18 01:23:04;;;;;;;0.00;0.00;;;18.50;99.90;;;;;;4943658;29;20123;-84
2023/09/18 01:25:34;;;;;;;0.00;0.00;;;18.50;99.90;;;;;;4941734;29;20039;-83
2023/09/18 01:28:00;;;;;;;0.00;0.00;;;18.50;99.90;;;;;;4948493;28;20031;-85
2023/09/18 01:30:25;;;;;;;0.00;0.00;;;18.40;99.90;;;;;;4943728;29;20053;-84
2023/09/18 01:32:53;;;;;;;0.00;0.00;;;18.50;99.90;;;;;;4945956;28;20054;-84
2023/09/18 01:35:20;;;;;;;0.00;0.00;;;18.40;99.90;;;;;;4954977;28;20042;-83
2023/09/18 01:37:46;;;;;;;0.00;0.00;;;18.50;99.90;;;;;;4953948;28;20054;-84
2023/09/18 01:40:13;;;;;;;0.00;0.00;;;18.50;99.90;;;;;;4952085;28;20027;-84
2023/09/18 01:42:40;;;;;;;0.00;0.00;;;18.60;99.90;;;;;;4941066;29;20031;-87
2023/09/18 01:45:06;;;;;;;0.00;0.00;;;18.70;99.90;;;;;;4946985;29;20063;-86
2023/09/18 01:47:31;;;;;;;0.00;0.00;;;19.00;99.90;;;;;;4944665;28;20099;-84
2023/09/18 01:49:57;;;;;;;0.00;0.00;;;19.00;99.90;;;;;;4946013;29;20027;-83
2023/09/18 01:52:23;;;;;;;0.00;0.00;;;19.00;99.90;;;;;;4943569;28;20034;-84
2023/09/18 01:54:49;;;;;;;0.00;0.00;;;19.00;99.90;;;;;;4944050;29;20033;-84
2023/09/18 01:57:14;;;;;;;0.00;0.00;;;19.00;99.90;;;;;;4937064;29;20051;-84
2023/09/18 01:59:41;;;;;;;0.00;0.00;;;19.00;99.90;;;;;;4942205;28;20102;-83
2023/09/18 02:02:08;;;;;;;0.00;0.00;;;19.00;99.90;;;;;;4941726;29;20035;-83
2023/09/18 02:04:34;;;;;;;0.00;0.00;;;18.90;99.90;;;;;;4940738;28;20027;-82
2023/09/18 02:07:00;;;;;;;0.00;0.00;;;18.80;99.90;;;;;;4945768;29;20031;-82
2023/09/18 02:09:25;;;;;;;0.00;0.00;;;18.70;99.90;;;;;;4940344;28;20043;-82
2023/09/18 02:11:51;;;;;;;0.00;0.00;;;18.60;99.90;;;;;;4940794;29;20086;-83
2023/09/18 02:14:17;;;;;;;0.00;0.00;;;18.60;99.90;;;;;;4945713;28;20054;-82
2023/09/18 02:16:43;;;;;;;0.00;0.00;;;18.60;99.90;;;;;;4943989;29;20126;-82
2023/09/18 02:19:22;;;;;;;0.00;0.00;;;18.60;99.90;;;;;;4945277;29;20033;-82
2023/09/18 02:21:48;;;;;;;0.00;0.00;;;18.70;99.90;;;;;;4944689;29;20086;-83
2023/09/18 02:24:13;;;;;;;0.00;0.00;;;18.70;99.90;;;;;;4941830;29;20505;-87
2023/09/18 02:26:39;;;;;;;0.00;0.00;;;18.70;99.90;;;;;;4947387;29;20027;-86
2023/09/18 02:29:13;;;;;;;0.00;0.00;;;18.80;99.90;;;;;;4945984;28;20066;-83
2023/09/18 02:31:39;;;;;;;0.00;0.00;;;18.70;99.90;;;;;;4941644;28;20030;-84
2023/09/18 02:34:07;;;;;;;0.00;0.00;;;18.60;99.90;;;;;;4943153;28;20122;-84
2023/09/18 02:36:33;;;;;;;0.00;0.00;;;18.50;99.90;;;;;;4942509;28;20040;-88
2023/09/18 02:38:58;;;;;;;0.00;0.00;;;18.40;99.90;;;;;;4944129;28;20502;-84
2023/09/18 02:41:24;;;;;;;0.00;0.00;;;18.20;99.90;;;;;;4938821;28;20039;-86
2023/09/18 02:43:50;;;;;;;0.00;0.00;;;18.20;99.90;;;;;;4942605;29;20015;-82
2023/09/18 02:46:15;;;;;;;0.00;0.00;;;18.20;99.90;;;;;;4942246;28;20042;-82
2023/09/18 02:48:41;;;;;;;0.00;0.00;;;18.30;99.90;;;;;;4942616;29;20027;-83
2023/09/18 02:51:07;;;;;;;0.00;0.00;;;18.30;99.90;;;;;;4947069;29;20027;-83
2023/09/18 02:53:33;;;;;;;0.00;0.00;;;18.40;99.90;;;;;;4942241;29;20503;-82
2023/09/18 02:55:59;;;;;;;0.00;0.00;;;18.40;99.90;;;;;;4943945;29;20035;-82
2023/09/18 02:58:26;;;;;;;0.03;0.03;;;18.40;99.90;;;;;;4942247;28;20550;-82
2023/09/18 03:00:53;;;;;;;0.00;0.00;;;18.30;99.90;;;;;;4944524;29;20054;-81
2023/09/18 03:03:19;;;;;;;0.00;0.00;;;18.10;99.90;;;;;;4966322;28;20089;-82
2023/09/18 03:05:45;;;;;;;0.00;0.00;;;18.10;99.90;;;;;;4945103;29;20035;-81
2023/09/18 03:08:12;;;;;;;0.00;0.00;;;18.00;99.90;;;;;;4948306;28;20502;-81
2023/09/18 03:10:40;;;;;;;0.00;0.00;;;17.90;99.90;;;;;;4950805;28;20031;-82
2023/09/18 03:13:07;;;;;;;0.00;0.00;;;17.80;99.90;;;;;;4968790;28;20031;-81
2023/09/18 03:15:33;;;;;;;0.00;0.00;;;17.80;99.90;;;;;;4949705;28;20039;-82
2023/09/18 03:18:00;;;;;;;0.00;0.00;;;17.70;99.90;;;;;;4948198;29;20035;-81
2023/09/18 03:20:28;;;;;;;0.00;0.00;;;17.80;99.90;;;;;;4949109;28;20290;-82
2023/09/18 03:22:56;;;;;;;0.00;0.00;;;17.80;99.90;;;;;;4946960;29;20091;-82
2023/09/18 03:25:23;;;;;;;0.00;0.00;;;17.50;99.90;;;;;;4950994;29;20030;-82
2023/09/18 03:27:51;;;;;;;0.00;0.00;;;17.60;99.90;;;;;;4952176;28;20410;-80
2023/09/18 03:30:16;;;;;;;0.00;0.00;;;17.60;99.90;;;;;;4944901;28;20150;-82
2023/09/18 03:32:43;;;;;;;0.00;0.00;;;17.60;99.90;;;;;;4943589;28;20078;-82
2023/09/18 03:35:18;;;;;;;0.00;0.00;;;17.50;99.90;;;;;;4957675;28;20042;-82
2023/09/18 03:37:48;;;;;;;0.00;0.00;;;17.60;99.90;;;;;;4950883;29;21836;-83
2023/09/18 03:40:15;;;;;;;0.00;0.00;;;17.60;99.90;;;;;;4946415;29;20033;-84
2023/09/18 03:42:40;;;;;;;;;;;17.60;99.90;;;;;;4952854;28;20039;-85
2023/09/18 03:45:08;;;;;;;0.00;0.00;;;17.60;99.90;;;;;;4949790;28;19921;-84
2023/09/18 03:47:39;;;;;;;0.00;0.00;;;17.60;99.90;;;;;;4949252;29;20023;-86
2023/09/18 03:50:06;;;;;;;0.00;0.00;;;17.70;99.90;;;;;;4949021;28;20039;-84
2023/09/18 03:52:31;;;;;;;0.00;0.00;;;17.60;99.90;;;;;;4947742;28;20042;-85
2023/09/18 03:54:57;;;;;;;0.00;0.00;;;17.60;99.90;;;;;;4947370;28;20035;-85
2023/09/18 03:57:23;;;;;;;0.00;0.00;;;17.60;99.90;;;;;;4947790;28;20027;-84
2023/09/18 03:59:49;;;;;;;0.00;0.00;;;17.60;99.90;;;;;;4947519;29;20154;-86
2023/09/18 04:02:15;;;;;;;0.00;0.00;;;17.70;99.90;;;;;;4948041;28;20130;-84
2023/09/18 04:04:40;;;;;;;0.00;0.00;;;17.70;99.90;;;;;;4944646;28;20032;-84
2023/09/18 04:07:07;;;;;;;0.00;0.00;;;17.60;99.90;;;;;;4942296;29;20031;-82
2023/09/18 04:09:34;;;;;;;0.00;0.00;;;17.60;99.90;;;;;;4940895;28;20117;-83
2023/09/18 04:12:00;;;;;;;0.00;0.00;;;17.60;99.90;;;;;;4949194;28;20065;-86
2023/09/18 04:14:26;;;;;;;0.00;0.00;;;17.50;99.90;;;;;;4953616;28;20106;-84
2023/09/18 04:16:52;;;;;;;0.00;0.00;;;17.40;99.90;;;;;;4947624;29;20197;-85
2023/09/18 04:19:18;;;;;;;0.00;0.00;;;17.40;99.90;;;;;;4948169;29;20019;-86
2023/09/18 04:21:43;;;;;;;0.00;0.00;;;17.50;99.90;;;;;;4967097;28;20047;-87
2023/09/18 04:24:09;;;;;;;0.00;0.00;;;17.70;99.90;;;;;;4951729;29;20739;-90
2023/09/18 04:26:35;;;;;;;0.00;0.00;;;17.70;99.90;;;;;;4948645;29;20133;-88
2023/09/18 04:29:01;;;;;;;0.00;0.00;;;17.80;99.90;;;;;;4950324;28;20042;-87
2023/09/18 04:31:27;;;;;;;0.00;0.00;;;17.60;99.90;;;;;;4963494;28;20037;-87
2023/09/18 04:33:53;;;;;;;0.10;0.10;;;17.60;99.90;;;;;;4949278;28;20518;-85
2023/09/18 04:36:19;;;;;;;0.00;0.00;;;17.50;99.90;;;;;;4946102;28;20291;-88
2023/09/18 04:38:45;;;;;;;0.00;0.00;;;17.30;99.90;;;;;;4944186;28;20114;-85
2023/09/18 04:41:11;;;;;;;0.00;0.00;;;17.10;99.90;;;;;;4942530;28;20114;-88
2023/09/18 04:43:38;;;;;;;0.00;0.00;;;17.00;99.90;;;;;;4961995;28;20640;-88
2023/09/18 04:46:04;;;;;;;0.00;0.00;;;17.00;99.90;;;;;;4950481;28;20039;-91
2023/09/18 04:48:31;;;;;;;0.00;0.00;;;17.10;99.90;;;;;;4967856;28;20677;-88
2023/09/18 04:50:58;;;;;;;0.00;0.00;;;17.20;99.90;;;;;;4968251;28;20043;-88
2023/09/18 04:53:24;;;;;;;;;;;17.30;99.90;;;;;;4952294;29;20032;-91
2023/09/18 04:55:50;;;;;;;0.05;0.05;;;17.30;99.90;;;;;;4943565;28;19973;-90
2023/09/18 04:58:19;;;;;;;0.00;0.00;;;17.20;99.90;;;;;;4946055;28;20038;-90
2023/09/18 05:00:46;;;;;;;0.03;0.03;;;17.20;99.90;;;;;;4963594;28;20605;-86
2023/09/18 05:03:12;;;;;;;0.00;0.00;;;17.20;99.90;;;;;;4945343;29;20079;-87
2023/09/18 05:05:38;;;;;;;0.00;0.00;;;17.30;99.90;;;;;;4946100;28;20042;-86
2023/09/18 05:08:07;;;;;;;0.00;0.00;;;17.40;99.90;;;;;;4958015;28;20416;-85
2023/09/18 05:10:34;;;;;;;0.00;0.00;;;17.40;99.90;;;;;;4954826;28;20081;-87
2023/09/18 05:13:00;;;;;;;0.00;0.00;;;17.20;99.90;;;;;;4944658;29;20051;-87
2023/09/18 05:15:26;;;;;;;0.00;0.00;;;17.20;99.90;;;;;;4944975;29;20031;-85
2023/09/18 05:17:56;;;;;;;0.00;0.00;;;17.10;99.90;;;;;;4960527;28;20059;-86
2023/09/18 05:20:24;;;;;;;0.00;0.00;;;17.10;99.90;;;;;;4938729;28;20100;-87
2023/09/18 05:22:52;;;;;;;1.30;1.20;;;17.00;99.90;;;;;;4957155;28;20039;-86
2023/09/18 05:25:18;;;;;;;0.00;0.00;;;17.00;99.90;;;;;;4964013;28;20038;-86
2023/09/18 05:27:45;;;;;;;0.00;0.00;;;16.90;99.90;;;;;;4941499;28;20031;-86
2023/09/18 05:30:11;;;;;;;0.00;0.00;;;16.80;99.90;;;;;;4952709;28;20075;-86
2023/09/18 05:32:37;;;;;;;0.00;0.00;;;16.80;99.90;;;;;;4938298;28;20538;-85
2023/09/18 05:35:06;;;;;;;0.00;0.00;;;16.80;99.90;;;;;;4945134;28;20075;-85
2023/09/18 05:37:34;;;;;;;0.10;0.10;;;16.70;99.90;;;;;;4962835;28;20035;-86
2023/09/18 05:40:00;;;;;;;0.10;0.10;;;16.70;99.90;;;;;;4944648;29;20031;-87
2023/09/18 05:42:26;;;;;;;0.10;0.10;;;16.80;99.90;;;;;;4949739;29;20031;-79
2023/09/18 05:44:51;;;;;;;0.00;0.00;;;16.80;99.90;;;;;;4965183;28;20041;-79
2023/09/18 05:47:17;;;;;;;0.00;0.00;;;16.90;99.90;;;;;;4951019;29;20123;-79
2023/09/18 05:49:43;;;;;;;0.00;0.00;;;16.80;99.90;;;;;;4949935;29;20050;-85
2023/09/18 05:52:08;;;;;;;0.00;0.00;;;16.80;99.90;;;;;;4950932;29;20046;-90
2023/09/18 05:54:34;;;;;;;0.00;0.00;;;16.80;99.90;;;;;;4948189;28;20086;-93
2023/09/18 05:57:01;;;;;;;0.00;0.00;;;16.80;99.90;;;;;;4945402;29;20027;-91
2023/09/18 05:59:27;;;;;;;0.00;0.00;;;16.80;99.90;;;;;;4945110;28;20333;-92
2023/09/18 06:01:53;;;;;;;0.00;0.00;;;16.80;99.90;;;;;;4951395;29;20034;-88
2023/09/18 06:04:19;;;;;;;0.00;0.00;;;16.90;99.90;;;;;;4965864;28;20027;-85
2023/09/18 06:06:46;;;;;;;0.10;0.10;;;17.00;99.90;;;;;;4963284;28;20046;-84
2023/09/18 06:09:12;;;;;;;0.00;0.00;;;17.10;99.90;;;;;;4947943;29;20166;-86
2023/09/18 06:11:38;;;;;;;0.00;0.00;;;17.60;99.90;;;;;;4963689;28;20031;-86
2023/09/18 06:14:03;;;;;;;0.00;0.00;;;18.90;99.90;;;;;;4941325;29;20039;-87
2023/09/18 06:16:30;;;;;;;0.40;0.40;;;19.70;99.90;;;;;;4964431;28;20041;-85
2023/09/18 06:18:56;;;;;;;0.00;0.00;;;20.30;99.90;;;;;;4946836;29;20090;-89
2023/09/18 06:21:21;;;;;;;0.00;0.00;;;20.90;99.90;;;;;;4947953;28;20043;-89
2023/09/18 06:23:47;;;;;;;2.33;0.83;;;21.50;99.90;;;;;;4950160;29;20098;-88
2023/09/18 06:26:13;;;;;;;0.00;0.00;;;21.70;99.90;;;;;;4948436;28;20042;-89
2023/09/18 06:28:39;;;;;;;0.00;0.00;;;22.00;99.90;;;;;;4964491;28;20469;-89
2023/09/18 06:31:05;;;;;;;0.00;0.00;;;21.80;99.90;;;;;;4949990;29;20122;-88
2023/09/18 06:33:30;;;;;;;0.00;0.00;;;22.00;99.90;;;;;;4955025;28;20043;-88
2023/09/18 06:35:56;;;;;;;0.00;0.00;;;22.00;99.90;;;;;;4953401;28;20035;-89
2023/09/18 06:38:22;;;;;;;0.00;0.00;;;22.70;99.90;;;;;;4970055;28;20063;-89
2023/09/18 06:40:47;;;;;;;0.00;0.00;;;23.00;99.90;;;;;;4970360;28;20032;-90
2023/09/18 06:43:13;;;;;;;0.00;0.00;;;23.10;99.90;;;;;;4971197;28;20471;-90
2023/09/18 06:45:39;;;;;;;0.00;0.00;;;23.40;99.90;;;;;;4955036;28;20031;-89
2023/09/18 06:48:05;;;;;;;0.00;0.00;;;23.70;99.90;;;;;;4954358;28;20046;-90
2023/09/18 06:50:30;;;;;;;0.00;0.00;;;24.00;99.90;;;;;;4970953;28;20282;-89
2023/09/18 06:52:56;;;;;;;0.00;0.00;;;24.20;99.90;;;;;;4948212;28;20051;-91
2023/09/18 06:55:22;;;;;;;0.00;0.00;;;24.60;99.50;;;;;;4950308;29;20643;-89
2023/09/18 06:57:48;;;;;;;0.00;0.00;;;24.90;98.60;;;;;;4954182;28;20039;-90
2023/09/18 07:00:15;;;;;;;0.00;0.00;;;25.00;97.90;;;;;;4971107;28;20601;-91
2023/09/18 07:02:41;;;;;;;0.00;0.00;;;24.90;98.20;;;;;;4954169;28;20495;-91
2023/09/18 07:05:06;;;;;;;0.00;0.00;;;25.00;98.10;;;;;;4953716;28;20141;-91
2023/09/18 07:07:32;;;;;;;0.00;0.00;;;25.50;97.20;;;;;;4952088;28;20040;-91
2023/09/18 07:09:58;;;;;;;0.00;0.00;;;25.80;93.90;;;;;;4944704;28;20478;-91
2023/09/18 07:12:24;;;;;;;0.00;0.00;;;25.90;95.60;;;;;;4961958;28;20042;-90
2023/09/18 07:14:49;;;;;;;0.00;0.00;;;26.50;94.60;;;;;;4958559;28;20039;-91
2023/09/18 07:17:15;;;;;;;0.00;0.00;;;26.80;93.90;;;;;;4953474;29;20123;-91
2023/09/18 07:19:41;;;;;;;0.00;0.00;;;27.00;93.90;;;;;;4950818;28;20098;-90
2023/09/18 07:22:07;;;;;;;0.00;0.00;;;27.30;93.70;;;;;;4956470;28;20753;-90
2023/09/18 07:24:32;;;;;;;0.00;0.00;;;27.30;92.80;;;;;;4956738;29;20039;-91
2023/09/18 07:26:58;;;;;;;0.00;0.00;;;27.10;92.80;;;;;;4953824;29;20038;-92
2023/09/18 07:29:27;;;;;;;0.00;0.00;;;27.40;92.80;;;;;;4956061;28;20035;-90
2023/09/18 07:31:52;;;;;;;0.00;0.00;;;27.60;92.90;;;;;;4955467;28;20039;-92
2023/09/18 07:34:18;;;;;;;0.00;0.00;;;28.10;91.80;;;;;;4954673;28;20099;-91
2023/09/18 07:36:44;;;;;;;0.00;0.00;;;28.50;91.00;;;;;;4955515;28;20035;-91
2023/09/18 07:39:11;;;;;;;0.00;0.00;;;28.50;90.90;;;;;;4952382;28;20375;-91
2023/09/18 07:41:37;;;;;;;0.00;0.00;;;28.60;90.80;;;;;;4951552;29;20450;-93
2023/09/18 07:44:03;;;;;;;;;;;28.90;89.60;;;;;;4942536;28;20032;-92
2023/09/18 07:46:29;;;;;;;0.00;0.00;;;29.00;90.00;;;;;;4950530;28;20408;-90
2023/09/18 07:48:55;;;;;;;0.00;0.00;;;29.40;87.70;;;;;;4947555;29;20039;-92
2023/09/18 07:51:21;;;;;;;0.00;0.00;;;28.80;88.40;;;;;;4950086;29;20039;-91
2023/09/18 07:53:47;;;;;;;;;;;29.30;87.30;;;;;;4969332;28;20170;-91
2023/09/18 07:56:12;;;;;;;0.00;0.00;;;29.60;88.10;;;;;;4954680;28;20012;-92
2023/09/18 07:58:38;;;;;;;0.00;0.00;;;29.70;86.20;;;;;;4953952;28;20027;-91
2023/09/18 08:01:05;;;;;;;0.00;0.00;;;29.20;87.10;;;;;;4952158;29;20451;-91
2023/09/18 08:03:31;;;;;;;0.00;0.00;;;29.80;85.70;;;;;;4947589;29;20063;-90
2023/09/18 08:05:57;;;;;;;0.00;0.00;;;30.30;84.20;;;;;;4953944;28;20785;-92
2023/09/18 08:08:26;;;;;;;0.00;0.00;;;30.90;80.30;;;;;;4950633;29;20275;-92
2023/09/18 08:10:53;;;;;;;0.00;0.00;;;30.80;76.90;;;;;;4954468;28;20050;-91
2023/09/18 08:13:19;;;;;;;0.00;0.00;;;30.70;78.80;;;;;;4957251;28;20027;-91
2023/09/18 08:15:45;;;;;;;0.00;0.00;;;31.20;78.40;;;;;;4971678;28;20039;-90
2023/09/18 08:18:13;;;;;;;0.00;0.00;;;31.40;74.10;;;;;;4947786;29;20031;-90
2023/09/18 08:20:45;;;;;;;0.00;0.00;;;32.00;70.50;;;;;;4948410;29;20491;-91
2023/09/18 08:23:11;;;;;;;0.00;0.00;;;31.80;70.80;;;;;;4944594;28;20055;-91
2023/09/18 08:25:37;;;;;;;0.00;0.00;;;32.00;67.40;;;;;;4953327;28;20035;-93
2023/09/18 08:28:04;;;;;;;0.00;0.00;;;32.20;67.70;;;;;;4949748;28;20030;-93
2023/09/18 08:30:30;;;;;;;0.00;0.00;;;32.20;67.30;;;;;;4949080;29;20035;-92
2023/09/18 08:32:55;;;;;;;0.00;0.00;;;32.00;66.90;;;;;;4947067;28;20035;-92
2023/09/18 08:35:22;;;;;;;;;;;31.30;68.50;;;;;;4954074;28;20038;-92
2023/09/18 08:37:48;;;;;;;0.00;0.00;;;31.90;67.30;;;;;;4962683;28;20476;-93
2023/09/18 08:40:14;;;;;;;;;;;32.10;66.20;;;;;;4952160;28;20026;-92
2023/09/18 08:42:53;;;;;;;0.00;0.00;;;32.60;61.90;;;;;;4951119;28;21544;-91
2023/09/18 08:45:42;;;;;;;0.00;0.00;;;33.10;60.60;;;;;;4966578;28;20086;-92
2023/09/18 08:48:08;;;;;;;0.00;0.00;;;33.50;62.20;;;;;;4958247;29;20068;-92
2023/09/18 08:50:35;;;;;;;0.00;0.00;;;32.90;62.50;;;;;;4950513;28;20039;-92
2023/09/18 08:53:01;;;;;;;0.00;0.00;;;33.30;62.30;;;;;;4954622;29;20638;-91
2023/09/18 08:55:27;;;;;;;;;;;33.50;60.30;;;;;;4950423;28;20042;-93
2023/09/18 08:57:55;;;;;;;0.00;0.00;;;33.80;59.80;;;;;;4948896;29;19996;-92
2023/09/18 09:00:21;;;;;;;0.00;0.00;;;32.90;58.40;;;;;;4955738;28;20031;-94
2023/09/18 09:02:50;;;;;;;;;;;33.80;57.90;;;;;;4950281;28;20074;-93
2023/09/18 09:05:16;;;;;;;0.00;0.00;;;33.70;58.20;;;;;;4946965;28;20425;-92
2023/09/18 09:07:42;;;;;;;0.00;0.00;;;33.10;56.90;;;;;;4945868;28;20038;-91
2023/09/18 09:10:08;;;;;;;0.00;0.00;;;33.50;56.10;;;;;;4953977;28;20031;-91
2023/09/18 09:12:54;;;;;;;0.00;0.00;;;33.90;56.00;;;;;;4953561;28;20046;-93
2023/09/18 09:15:46;;;;;;;0.00;0.00;;;31.60;57.30;;;;;;4943663;29;20040;-92
2023/09/18 09:18:14;;;;;;;0.00;0.00;;;32.60;54.50;;;;;;4947888;28;20528;-90
2023/09/18 09:20:41;;;;;;;0.00;0.00;;;31.80;58.20;;;;;;4949130;29;20586;-92
2023/09/18 09:23:09;;;;;;;0.00;0.00;;;31.70;59.10;;;;;;4963538;28;20036;-92
2023/09/18 09:25:36;;;;;;;0.00;0.00;;;32.40;54.70;;;;;;4947879;29;20035;-92
2023/09/18 09:28:06;;;;;;;0.00;0.00;;;32.30;56.50;;;;;;4950365;28;20098;-93
2023/09/18 09:30:37;;;;;;;0.00;0.00;;;32.90;57.80;;;;;;4959432;28;20031;-91
2023/09/18 09:33:04;;;;;;;0.00;0.00;;;32.40;59.00;;;;;;4947813;28;20062;-91
2023/09/18 09:35:36;;;;;;;0.00;0.00;;;31.40;58.90;;;;;;4968885;28;20038;-91
2023/09/18 09:38:09;;;;;;;0.00;0.00;;;32.10;58.00;;;;;;4950966;28;20063;-90
2023/09/18 09:40:35;;;;;;;0.63;0.63;;;32.30;57.80;;;;;;4945712;29;20034;-91
2023/09/18 09:43:01;;;;;;;;;;;31.70;57.00;;;;;;4944330;28;20035;-92
2023/09/18 09:45:29;;;;;;;0.00;0.00;;;31.60;56.20;;;;;;4949032;28;19921;-92
2023/09/18 09:47:56;;;;;;;0.00;0.00;;;30.70;54.80;;;;;;4968066;28;20066;-92
2023/09/18 09:50:25;;;;;;;0.00;0.00;;;31.10;55.40;;;;;;4951038;28;20043;-89
2023/09/18 09:52:53;;;;;;;0.00;0.00;;;31.40;55.90;;;;;;4952180;29;20031;-90
2023/09/18 09:55:25;;;;;;;0.00;0.00;;;31.40;55.30;;;;;;4950453;28;20380;-90
2023/09/18 09:57:54;;;;;;;0.00;0.00;;;29.50;56.20;;;;;;4950941;28;20033;-91
2023/09/18 10:00:36;;;;;;;0.00;0.00;;;29.30;55.70;;;;;;4938574;28;20032;-91
2023/09/18 10:03:04;;;;;;;0.00;0.00;;;28.50;58.90;;;;;;4942215;28;20038;-90
2023/09/18 10:05:33;;;;;;;0.00;0.00;;;27.90;61.90;;;;;;4942503;29;20043;-90
2023/09/18 10:08:02;;;;;;;0.00;0.00;;;27.80;63.70;;;;;;4937259;29;20122;-90
2023/09/18 10:10:34;;;;;;;0.00;0.00;;;27.70;63.40;;;;;;4951824;28;20035;-91
2023/09/18 10:13:07;;;;;;;0.00;0.00;;;27.80;65.50;;;;;;4940331;28;20062;-91
2023/09/18 10:15:38;;;;;;;0.00;0.00;;;27.40;66.80;;;;;;4955287;28;20031;-90
2023/09/18 10:18:08;;;;;;;0.00;0.00;;;27.40;64.10;;;;;;4964174;28;20086;-89
2023/09/18 10:20:42;;;;;;;0.00;0.00;;;27.10;66.70;;;;;;4947917;28;20170;-89
2023/09/18 10:23:23;;;;;;;0.00;0.00;;;26.80;67.00;;;;;;4947677;29;20107;-90
2023/09/18 10:25:54;;;;;;;0.00;0.00;;;27.40;68.00;;;;;;4951007;29;20031;-91
2023/09/18 10:28:22;;;;;;;0.00;0.00;;;27.10;65.90;;;;;;4946799;28;20066;-89
2023/09/18 10:30:51;;;;;;;0.00;0.00;;;27.00;65.70;;;;;;4946014;28;20042;-88
2023/09/18 10:33:17;;;;;;;0.00;0.00;;;26.80;66.70;;;;;;4946506;28;20028;-88
2023/09/18 10:35:43;;;;;;;;;;;26.70;65.30;;;;;;4943074;28;20143;-88
2023/09/18 10:38:10;;;;;;;0.00;0.00;;;26.60;64.80;;;;;;4944849;28;19997;-89
2023/09/18 10:40:37;;;;;;;0.00;0.00;;;26.80;66.90;;;;;;4948134;29;20031;-89
2023/09/18 10:43:09;;;;;;;0.00;0.00;;;26.70;63.40;;;;;;4947609;29;20063;-89
2023/09/18 10:45:36;;;;;;;0.00;0.00;;;26.30;65.20;;;;;;4948600;28;20031;-90
2023/09/18 10:48:02;;;;;;;0.00;0.00;;;26.50;66.00;;;;;;4947455;28;20035;-90
2023/09/18 10:50:29;;;;;;;0.00;0.00;;;26.40;66.20;;;;;;4949555;29;20031;-89
2023/09/18 10:52:58;;;;;;;0.00;0.00;;;26.30;67.90;;;;;;4949214;28;20058;-88
2023/09/18 10:55:26;;;;;;;0.00;0.00;;;25.90;67.50;;;;;;4964374;28;20073;-89
2023/09/18 10:57:58;;;;;;;0.00;0.00;;;25.80;66.50;;;;;;4936167;28;20122;-89
2023/09/18 11:00:28;;;;;;;0.00;0.00;;;25.80;66.50;;;;;;4948410;29;20053;-89
2023/09/18 11:03:18;;;;;;;0.00;0.00;;;26.20;66.00;;;;;;4958896;28;20609;-88
2023/09/18 11:05:45;;;;;;;0.00;0.00;;;26.10;67.00;;;;;;4938850;29;20066;-89
2023/09/18 11:08:27;;;;;;;0.00;0.00;;;26.10;68.00;;;;;;4943536;29;20460;-89
2023/09/18 11:11:04;;;;;;;0.00;0.00;;;26.20;67.10;;;;;;4961931;28;20028;-89
2023/09/18 11:13:36;;;;;;;0.05;0.05;;;26.20;66.10;;;;;;4953111;28;20038;-87
2023/09/18 11:16:26;;;;;;;0.00;0.00;;;26.20;65.30;;;;;;4958836;28;20031;-90
2023/09/18 11:18:53;;;;;;;0.00;0.00;;;26.30;65.50;;;;;;4940931;29;20031;-89
2023/09/18 11:21:25;;;;;;;0.00;0.00;;;26.10;64.50;;;;;;4948254;28;20118;-91
2023/09/18 11:24:05;;;;;;;0.00;0.00;;;25.70;65.40;;;;;;4944855;28;20635;-90
2023/09/18 11:26:41;;;;;;;0.00;0.00;;;26.00;65.60;;;;;;4951330;29;20847;-89
2023/09/18 11:29:11;;;;;;;0.00;0.00;;;25.90;68.70;;;;;;4948195;28;20042;-88
2023/09/18 11:31:44;;;;;;;0.00;0.00;;;25.30;64.30;;;;;;4952887;29;20042;-89
2023/09/18 11:34:23;;;;;;;0.00;0.00;;;25.20;66.80;;;;;;4947092;28;20091;-89
2023/09/18 11:36:50;;;;;;;0.00;0.00;;;25.60;69.50;;;;;;4951529;29;20035;-88
2023/09/18 11:39:38;;;;;;;;;;;25.30;65.50;;;;;;4953527;29;20047;-88
2023/09/18 11:42:28;;;;;;;0.00;0.00;;;25.40;67.90;;;;;;4963546;28;20054;-90
2023/09/18 11:44:56;;;;;;;0.00;0.00;;;25.70;68.00;;;;;;4951190;29;20065;-88
2023/09/18 11:47:27;;;;;;;0.00;0.00;;;25.60;67.60;;;;;;4952240;28;20042;-90
2023/09/18 11:49:56;;;;;;;0.00;0.00;;;25.10;66.80;;;;;;4950956;28;20031;-89
2023/09/18 11:52:24;;;;;;;0.00;0.00;;;25.10;65.40;;;;;;4968339;28;20403;-89
2023/09/18 11:54:51;;;;;;;0.00;0.00;;;25.20;64.50;;;;;;4952575;28;20066;-89
2023/09/18 11:57:19;;;;;;;;;;;25.00;64.20;;;;;;4953060;28;20067;-90
2023/09/18 11:59:46;;;;;;;0.00;0.00;;;25.70;68.50;;;;;;4952718;28;20001;-89
2023/09/18 12:02:27;;;;;;;0.00;0.00;;;25.80;67.90;;;;;;4945836;28;20031;-89
2023/09/18 12:04:57;;;;;;;0.00;0.00;;;25.50;62.00;;;;;;4944899;29;20043;-89
2023/09/18 12:07:24;;;;;;;0.00;0.00;;;25.60;65.00;;;;;;4945846;29;20054;-89
2023/09/18 12:09:50;;;;;;;0.00;0.00;;;25.50;64.50;;;;;;4952014;28;20174;-90
2023/09/18 12:12:17;;;;;;;0.00;0.00;;;25.10;64.40;;;;;;4968242;28;20121;-90
2023/09/18 12:14:44;;;;;;;0.00;0.00;;;25.30;62.50;;;;;;4955757;28;20050;-89
2023/09/18 12:17:16;;;;;;;0.00;0.00;;;25.30;66.00;;;;;;4942375;28;20059;-88
2023/09/18 12:19:55;;;;;;;0.00;0.00;;;25.30;63.80;;;;;;4950433;29;20031;-89
2023/09/18 12:22:26;;;;;;;0.00;0.00;;;25.20;65.40;;;;;;4950768;28;20039;-89
2023/09/18 12:24:52;;;;;;;0.00;0.00;;;25.10;64.10;;;;;;4946753;29;20035;-89
2023/09/18 12:27:17;;;;;;;0.00;0.00;;;25.40;64.00;;;;;;4951537;29;20027;-88
2023/09/18 12:29:44;;;;;;;0.00;0.00;;;25.40;63.30;;;;;;4945952;28;20883;-89
2023/09/18 12:32:13;;;;;;;;;;;25.40;65.00;;;;;;4950401;28;20038;-88
2023/09/18 12:34:41;;;;;;;0.00;0.00;;;25.30;63.80;;;;;;4951425;28;19920;-88
2023/09/18 12:37:11;;;;;;;0.00;0.00;;;25.50;64.30;;;;;;4947484;28;20035;-89
2023/09/18 12:39:37;;;;;;;0.00;0.00;;;25.40;63.40;;;;;;4951509;28;20025;-89
2023/09/18 12:42:04;;;;;;;0.00;0.00;;;25.50;67.90;;;;;;4940345;28;20467;-90
2023/09/18 12:44:30;;;;;;;;;;;25.50;67.00;;;;;;4968066;28;20038;-91
2023/09/18 12:46:55;;;;;;;0.00;0.00;;;25.40;61.00;;;;;;4952166;28;19910;-89
2023/09/18 12:49:27;;;;;;;0.00;0.00;;;25.30;61.20;;;;;;4942466;29;20040;-89
2023/09/18 12:52:00;;;;;;;0.00;0.00;;;25.30;62.50;;;;;;4948202;29;20773;-89
2023/09/18 12:54:39;;;;;;;0.00;0.00;;;25.20;63.00;;;;;;4945985;28;20039;-89